sensor_id;sensor_type;location;lat;lon;timestamp;pressure;altitude;pressure_sealevel;temperature;humidity
55171;BME280;41060;47.510;8.680;2023-04-10T00:00:50;97566.56;;;10.57;39.52
55171;BME280;41060;47.510;8.680;2023-04-10T00:03:22;97560.22;;;10.60;39.46
55171;BME280;41060;47.510;8.680;2023-04-10T00:05:50;97565.31;;;10.63;39.82
55171;BME280;41060;47.510;8.680;2023-04-10T00:08:19;97563.56;;;10.62;39.81
55171;BME280;41060;47.510;8.680;2023-04-10T00:10:45;97559.47;;;10.58;39.64
55171;BME280;41060;47.510;8.680;2023-04-10T00:13:13;97559.91;;;10.52;39.59
55171;BME280;41060;47.510;8.680;2023-04-10T00:15:40;97565.09;;;10.53;39.62
55171;BME280;41060;47.510;8.680;2023-04-10T00:18:06;97558.72;;;10.56;39.70
55171;BME280;41060;47.510;8.680;2023-04-10T00:20:33;97548.38;;;10.53;39.34
55171;BME280;41060;47.510;8.680;2023-04-10T00:23:01;97555.13;;;10.57;39.64
55171;BME280;41060;47.510;8.680;2023-04-10T00:25:28;97554.28;;;10.56;39.90
55171;BME280;41060;47.510;8.680;2023-04-10T00:27:55;97554.28;;;10.56;39.74
55171;BME280;41060;47.510;8.680;2023-04-10T00:30:21;97545.84;;;10.51;39.42
55171;BME280;41060;47.510;8.680;2023-04-10T00:32:48;97551.69;;;10.44;39.91
55171;BME280;41060;47.510;8.680;2023-04-10T00:35:15;97545.75;;;10.40;40.01
55171;BME280;41060;47.510;8.680;2023-04-10T00:37:42;97546.38;;;10.44;39.76
55171;BME280;41060;47.510;8.680;2023-04-10T00:40:12;97519.22;;;10.29;39.68
55171;BME280;41060;47.510;8.680;2023-04-10T00:42:39;97542.78;;;10.45;39.85
55171;BME280;41060;47.510;8.680;2023-04-10T00:45:07;97549.13;;;10.42;39.32
55171;BME280;41060;47.510;8.680;2023-04-10T00:47:34;97548.44;;;10.27;39.96
55171;BME280;41060;47.510;8.680;2023-04-10T00:50:01;97546.69;;;10.15;40.16
55171;BME280;41060;47.510;8.680;2023-04-10T00:52:28;97536.41;;;10.11;40.00
55171;BME280;41060;47.510;8.680;2023-04-10T00:54:54;97535.25;;;10.15;39.98
55171;BME280;41060;47.510;8.680;2023-04-10T00:57:23;97535.34;;;10.13;39.56
55171;BME280;41060;47.510;8.680;2023-04-10T00:59:51;97538.09;;;10.12;39.67
55171;BME280;41060;47.510;8.680;2023-04-10T01:02:18;97542.78;;;10.08;39.88
55171;BME280;41060;47.510;8.680;2023-04-10T01:04:46;97521.97;;;9.78;40.58
55171;BME280;41060;47.510;8.680;2023-04-10T01:07:17;97549.34;;;9.77;40.66
55171;BME280;41060;47.510;8.680;2023-04-10T01:09:51;97549.25;;;9.66;41.03
55171;BME280;41060;47.510;8.680;2023-04-10T01:12:37;97552.00;;;9.65;41.29
55171;BME280;41060;47.510;8.680;2023-04-10T01:15:09;97554.44;;;9.68;41.14
55171;BME280;41060;47.510;8.680;2023-04-10T01:17:42;97538.91;;;9.63;40.89
55171;BME280;41060;47.510;8.680;2023-04-10T01:20:13;97557.16;;;9.66;40.61
55171;BME280;41060;47.510;8.680;2023-04-10T01:22:51;97538.47;;;9.57;40.64
55171;BME280;41060;47.510;8.680;2023-04-10T01:25:37;97551.16;;;9.64;41.29
55171;BME280;41060;47.510;8.680;2023-04-10T01:31:17;97547.34;;;9.55;42.00
55171;BME280;41060;47.510;8.680;2023-04-10T01:33:48;97508.25;;;9.21;42.56
55171;BME280;41060;47.510;8.680;2023-04-10T01:36:20;97547.22;;;9.32;42.83
55171;BME280;41060;47.510;8.680;2023-04-10T01:38:49;97550.38;;;9.24;43.30
55171;BME280;41060;47.510;8.680;2023-04-10T01:41:21;97560.47;;;9.17;42.83
55171;BME280;41060;47.510;8.680;2023-04-10T01:43:49;97549.81;;;9.19;42.66
55171;BME280;41060;47.510;8.680;2023-04-10T01:46:20;97549.59;;;9.22;42.81
55171;BME280;41060;47.510;8.680;2023-04-10T01:48:48;97549.59;;;9.22;42.36
55171;BME280;41060;47.510;8.680;2023-04-10T01:51:16;97532.78;;;9.10;42.33
55171;BME280;41060;47.510;8.680;2023-04-10T01:53:43;97530.25;;;9.09;42.32
55171;BME280;41060;47.510;8.680;2023-04-10T01:56:11;97552.66;;;9.16;42.48
55171;BME280;41060;47.510;8.680;2023-04-10T01:58:38;97528.00;;;9.03;42.55
55171;BME280;41060;47.510;8.680;2023-04-10T02:01:04;97543.84;;;9.03;42.76
55171;BME280;41060;47.510;8.680;2023-04-10T02:03:35;97547.63;;;8.99;42.69
55171;BME280;41060;47.510;8.680;2023-04-10T02:06:10;97556.72;;;8.95;42.71
55171;BME280;41060;47.510;8.680;2023-04-10T02:08:42;97549.31;;;8.87;42.75
55171;BME280;41060;47.510;8.680;2023-04-10T02:11:14;97551.84;;;8.89;42.53
55171;BME280;41060;47.510;8.680;2023-04-10T02:13:44;97548.38;;;8.88;42.23
55171;BME280;41060;47.510;8.680;2023-04-10T02:16:13;97547.69;;;8.85;42.94
55171;BME280;41060;47.510;8.680;2023-04-10T02:18:44;97548.97;;;8.79;43.22
55171;BME280;41060;47.510;8.680;2023-04-10T02:21:12;97556.25;;;8.75;43.27
55171;BME280;41060;47.510;8.680;2023-04-10T02:23:39;97553.78;;;8.72;43.20
55171;BME280;41060;47.510;8.680;2023-04-10T02:26:06;97547.75;;;8.70;43.25
55171;BME280;41060;47.510;8.680;2023-04-10T02:28:33;97550.16;;;8.61;43.62
55171;BME280;41060;47.510;8.680;2023-04-10T02:31:00;97544.22;;;8.57;43.23
55171;BME280;41060;47.510;8.680;2023-04-10T02:33:26;97554.78;;;8.57;43.11
55171;BME280;41060;47.510;8.680;2023-04-10T02:35:55;97554.97;;;8.54;43.55
55171;BME280;41060;47.510;8.680;2023-04-10T02:38:21;97552.53;;;8.51;43.58
55171;BME280;41060;47.510;8.680;2023-04-10T02:40:48;97557.16;;;8.48;43.53
55171;BME280;41060;47.510;8.680;2023-04-10T02:43:15;97554.81;;;8.43;43.60
55171;BME280;41060;47.510;8.680;2023-04-10T02:45:43;97550.88;;;8.36;43.96
55171;BME280;41060;47.510;8.680;2023-04-10T02:48:09;97560.59;;;8.35;43.97
55171;BME280;41060;47.510;8.680;2023-04-10T02:50:36;97558.97;;;8.33;43.96
55171;BME280;41060;47.510;8.680;2023-04-10T02:53:04;97562.78;;;8.29;44.11
55171;BME280;41060;47.510;8.680;2023-04-10T02:55:31;97564.53;;;8.43;43.69
55171;BME280;41060;47.510;8.680;2023-04-10T02:57:58;97551.53;;;8.39;43.27
55171;BME280;41060;47.510;8.680;2023-04-10T03:00:24;97570.19;;;8.51;43.59
55171;BME280;41060;47.510;8.680;2023-04-10T03:02:51;97565.00;;;8.49;43.54
55171;BME280;41060;47.510;8.680;2023-04-10T03:05:18;97566.53;;;8.39;43.73
55171;BME280;41060;47.510;8.680;2023-04-10T03:07:44;97553.06;;;8.29;43.16
55171;BME280;41060;47.510;8.680;2023-04-10T03:10:12;97561.25;;;8.25;43.20
55171;BME280;41060;47.510;8.680;2023-04-10T03:12:40;97562.88;;;8.27;43.20
55171;BME280;41060;47.510;8.680;2023-04-10T03:15:07;97566.44;;;8.26;43.08
55171;BME280;41060;47.510;8.680;2023-04-10T03:17:33;97566.44;;;8.26;43.39
55171;BME280;41060;47.510;8.680;2023-04-10T03:20:01;97569.38;;;8.22;43.53
55171;BME280;41060;47.510;8.680;2023-04-10T03:22:27;97554.59;;;8.19;43.83
55171;BME280;41060;47.510;8.680;2023-04-10T03:24:56;97567.22;;;8.14;43.95
55171;BME280;41060;47.510;8.680;2023-04-10T03:27:27;97562.97;;;8.12;44.02
55171;BME280;41060;47.510;8.680;2023-04-10T03:29:56;97555.47;;;8.06;44.05
55171;BME280;41060;47.510;8.680;2023-04-10T03:32:23;97558.28;;;8.02;44.17
55171;BME280;41060;47.510;8.680;2023-04-10T03:34:50;97550.34;;;8.02;44.02
55171;BME280;41060;47.510;8.680;2023-04-10T03:37:16;97544.53;;;7.97;44.36
55171;BME280;41060;47.510;8.680;2023-04-10T03:39:43;97550.19;;;7.91;44.49
55171;BME280;41060;47.510;8.680;2023-04-10T03:42:11;97546.81;;;7.89;44.82
55171;BME280;41060;47.510;8.680;2023-04-10T03:44:39;97541.91;;;7.83;44.64
55171;BME280;41060;47.510;8.680;2023-04-10T03:47:08;97544.00;;;7.78;44.83
55171;BME280;41060;47.510;8.680;2023-04-10T03:49:35;97547.66;;;7.76;44.82
55171;BME280;41060;47.510;8.680;2023-04-10T03:52:02;97548.78;;;7.72;44.90
55171;BME280;41060;47.510;8.680;2023-04-10T03:54:28;97539.91;;;7.73;44.70
55171;BME280;41060;47.510;8.680;2023-04-10T03:56:55;97544.56;;;7.69;44.93
55171;BME280;41060;47.510;8.680;2023-04-10T03:59:22;97546.44;;;7.67;44.93
55171;BME280;41060;47.510;8.680;2023-04-10T04:01:50;97537.63;;;7.67;44.82
55171;BME280;41060;47.510;8.680;2023-04-10T04:04:18;97541.16;;;7.67;45.04
55171;BME280;41060;47.510;8.680;2023-04-10T04:06:47;97531.97;;;7.58;45.09
55171;BME280;41060;47.510;8.680;2023-04-10T04:09:13;97545.66;;;7.65;44.77
55171;BME280;41060;47.510;8.680;2023-04-10T04:11:41;97552.22;;;7.58;44.89
55171;BME280;41060;47.510;8.680;2023-04-10T04:14:07;97544.69;;;7.52;44.95
55171;BME280;41060;47.510;8.680;2023-04-10T04:16:34;97540.94;;;7.42;45.29
55171;BME280;41060;47.510;8.680;2023-04-10T04:19:02;97545.03;;;7.32;45.56
55171;BME280;41060;47.510;8.680;2023-04-10T04:21:30;97543.81;;;7.37;45.42
55171;BME280;41060;47.510;8.680;2023-04-10T04:23:57;97547.22;;;7.39;45.29
55171;BME280;41060;47.510;8.680;2023-04-10T04:26:24;97548.84;;;7.42;45.13
55171;BME280;41060;47.510;8.680;2023-04-10T04:28:51;97545.16;;;7.44;45.12
55171;BME280;41060;47.510;8.680;2023-04-10T04:31:17;97547.22;;;7.39;45.20
55171;BME280;41060;47.510;8.680;2023-04-10T04:33:44;97544.75;;;7.36;45.67
55171;BME280;41060;47.510;8.680;2023-04-10T04:36:12;97546.44;;;7.37;45.45
55171;BME280;41060;47.510;8.680;2023-04-10T04:38:39;97547.97;;;7.41;44.96
55171;BME280;41060;47.510;8.680;2023-04-10T04:41:06;97552.88;;;7.47;45.06
55171;BME280;41060;47.510;8.680;2023-04-10T04:43:32;97558.31;;;7.44;44.95
55171;BME280;41060;47.510;8.680;2023-04-10T04:46:01;97544.97;;;7.47;44.93
55171;BME280;41060;47.510;8.680;2023-04-10T04:48:28;97552.97;;;7.46;44.72
55171;BME280;41060;47.510;8.680;2023-04-10T04:50:54;97565.38;;;7.44;44.82
55171;BME280;41060;47.510;8.680;2023-04-10T04:53:24;97556.63;;;7.43;44.78
55171;BME280;41060;47.510;8.680;2023-04-10T04:55:51;97559.38;;;7.42;45.04
55171;BME280;41060;47.510;8.680;2023-04-10T04:58:18;97565.56;;;7.41;45.23
55171;BME280;41060;47.510;8.680;2023-04-10T05:00:47;97514.72;;;7.10;44.66
55171;BME280;41060;47.510;8.680;2023-04-10T05:03:18;97538.16;;;7.29;44.82
55171;BME280;41060;47.510;8.680;2023-04-10T05:05:44;97572.53;;;7.42;44.87
55171;BME280;41060;47.510;8.680;2023-04-10T05:08:14;97581.28;;;7.42;44.93
55171;BME280;41060;47.510;8.680;2023-04-10T05:10:42;97577.81;;;7.42;45.11
55171;BME280;41060;47.510;8.680;2023-04-10T05:13:09;97570.75;;;7.42;44.98
55171;BME280;41060;47.510;8.680;2023-04-10T05:15:38;97573.41;;;7.42;45.03
55171;BME280;41060;47.510;8.680;2023-04-10T05:18:05;97576.75;;;7.44;45.21
55171;BME280;41060;47.510;8.680;2023-04-10T05:20:37;97545.97;;;7.31;45.30
55171;BME280;41060;47.510;8.680;2023-04-10T05:23:05;97575.63;;;7.34;45.49
55171;BME280;41060;47.510;8.680;2023-04-10T05:25:32;97570.44;;;7.33;45.56
55171;BME280;41060;47.510;8.680;2023-04-10T05:27:59;97575.03;;;7.29;45.46
55171;BME280;41060;47.510;8.680;2023-04-10T05:30:27;97579.44;;;7.29;45.19
55171;BME280;41060;47.510;8.680;2023-04-10T05:32:53;97574.50;;;7.38;45.56
55171;BME280;41060;47.510;8.680;2023-04-10T05:35:20;97566.44;;;7.41;45.32
55171;BME280;41060;47.510;8.680;2023-04-10T05:37:47;97575.75;;;7.47;45.54
55171;BME280;41060;47.510;8.680;2023-04-10T05:40:14;97573.88;;;7.49;45.75
55171;BME280;41060;47.510;8.680;2023-04-10T05:42:40;97563.97;;;7.52;45.47
55171;BME280;41060;47.510;8.680;2023-04-10T05:45:09;97568.22;;;7.55;45.61
55171;BME280;41060;47.510;8.680;2023-04-10T05:47:36;97571.41;;;7.60;45.55
55171;BME280;41060;47.510;8.680;2023-04-10T05:50:03;97569.56;;;7.62;45.42
55171;BME280;41060;47.510;8.680;2023-04-10T05:52:30;97584.44;;;7.63;45.47
55171;BME280;41060;47.510;8.680;2023-04-10T05:54:56;97579.75;;;7.68;45.18
55171;BME280;41060;47.510;8.680;2023-04-10T05:57:24;97580.13;;;7.76;45.24
55171;BME280;41060;47.510;8.680;2023-04-10T05:59:51;97577.31;;;7.79;45.25
55171;BME280;41060;47.510;8.680;2023-04-10T06:02:19;97584.19;;;7.82;45.07
55171;BME280;41060;47.510;8.680;2023-04-10T06:04:47;97574.31;;;7.85;44.83
55171;BME280;41060;47.510;8.680;2023-04-10T06:07:14;97584.47;;;7.91;44.59
55171;BME280;41060;47.510;8.680;2023-04-10T06:09:41;97583.06;;;8.00;44.82
55171;BME280;41060;47.510;8.680;2023-04-10T06:12:07;97582.13;;;8.01;44.74
55171;BME280;41060;47.510;8.680;2023-04-10T06:14:34;97586.25;;;8.05;44.93
55171;BME280;41060;47.510;8.680;2023-04-10T06:17:01;97581.53;;;8.10;45.06
55171;BME280;41060;47.510;8.680;2023-04-10T06:19:29;97589.19;;;8.15;44.49
55171;BME280;41060;47.510;8.680;2023-04-10T06:21:56;97574.69;;;8.08;44.97
55171;BME280;41060;47.510;8.680;2023-04-10T06:24:22;97584.44;;;8.20;44.93
55171;BME280;41060;47.510;8.680;2023-04-10T06:26:49;97586.69;;;8.26;44.57
55171;BME280;41060;47.510;8.680;2023-04-10T06:29:16;97579.38;;;8.31;44.60
55171;BME280;41060;47.510;8.680;2023-04-10T06:31:45;97583.66;;;8.32;44.98
55171;BME280;41060;47.510;8.680;2023-04-10T06:34:12;97581.03;;;8.32;45.30
55171;BME280;41060;47.510;8.680;2023-04-10T06:36:40;97585.00;;;8.25;45.24
55171;BME280;41060;47.510;8.680;2023-04-10T06:39:07;97582.94;;;8.30;44.98
55171;BME280;41060;47.510;8.680;2023-04-10T06:41:33;97581.88;;;8.32;44.88
55171;BME280;41060;47.510;8.680;2023-04-10T06:44:00;97591.03;;;8.27;45.22
55171;BME280;41060;47.510;8.680;2023-04-10T06:46:27;97583.16;;;7.98;46.04
55171;BME280;41060;47.510;8.680;2023-04-10T06:48:53;97568.56;;;7.79;46.48
55171;BME280;41060;47.510;8.680;2023-04-10T06:51:20;97583.78;;;7.74;47.22
55171;BME280;41060;47.510;8.680;2023-04-10T06:53:48;97585.97;;;7.67;47.42
55171;BME280;41060;47.510;8.680;2023-04-10T06:56:15;97581.00;;;7.77;47.01
55171;BME280;41060;47.510;8.680;2023-04-10T06:58:42;97575.63;;;7.78;46.90
55171;BME280;41060;47.510;8.680;2023-04-10T07:01:11;97547.09;;;7.71;46.83
55171;BME280;41060;47.510;8.680;2023-04-10T07:03:39;97568.16;;;8.13;45.98
55171;BME280;41060;47.510;8.680;2023-04-10T07:06:06;97570.47;;;8.32;45.97
55171;BME280;41060;47.510;8.680;2023-04-10T07:08:35;97534.19;;;8.09;46.26
55171;BME280;41060;47.510;8.680;2023-04-10T07:11:03;97573.50;;;8.26;46.59
55171;BME280;41060;47.510;8.680;2023-04-10T07:13:30;97570.13;;;8.38;46.63
55171;BME280;41060;47.510;8.680;2023-04-10T07:15:57;97564.50;;;8.57;46.34
55171;BME280;41060;47.510;8.680;2023-04-10T07:18:23;97572.19;;;8.33;47.23
55171;BME280;41060;47.510;8.680;2023-04-10T07:20:50;97573.53;;;7.97;47.71
55171;BME280;41060;47.510;8.680;2023-04-10T07:23:18;97568.56;;;7.79;48.30
55171;BME280;41060;47.510;8.680;2023-04-10T07:25:45;97574.47;;;7.82;48.05
55171;BME280;41060;47.510;8.680;2023-04-10T07:28:13;97575.97;;;8.29;47.52
55171;BME280;41060;47.510;8.680;2023-04-10T07:30:40;97569.72;;;8.71;46.87
55171;BME280;41060;47.510;8.680;2023-04-10T07:33:07;97573.41;;;8.95;47.02
55171;BME280;41060;47.510;8.680;2023-04-10T07:35:34;97572.03;;;9.29;46.02
55171;BME280;41060;47.510;8.680;2023-04-10T07:38:00;97570.38;;;9.41;45.13
55171;BME280;41060;47.510;8.680;2023-04-10T07:40:27;97569.00;;;9.08;45.95
55171;BME280;41060;47.510;8.680;2023-04-10T07:42:54;97570.44;;;8.60;47.17
55171;BME280;41060;47.510;8.680;2023-04-10T07:45:22;97571.03;;;8.51;47.12
55171;BME280;41060;47.510;8.680;2023-04-10T07:47:48;97560.59;;;8.62;46.99
55171;BME280;41060;47.510;8.680;2023-04-10T07:50:16;97573.75;;;8.76;47.63
55171;BME280;41060;47.510;8.680;2023-04-10T07:52:42;97568.06;;;9.09;46.66
55171;BME280;41060;47.510;8.680;2023-04-10T07:55:09;97569.97;;;9.07;46.32
55171;BME280;41060;47.510;8.680;2023-04-10T07:57:39;97572.81;;;9.04;46.91
55171;BME280;41060;47.510;8.680;2023-04-10T08:00:06;97568.00;;;9.24;46.60
55171;BME280;41060;47.510;8.680;2023-04-10T08:02:35;97572.09;;;9.54;45.73
55171;BME280;41060;47.510;8.680;2023-04-10T08:05:02;97576.28;;;9.44;46.34
55171;BME280;41060;47.510;8.680;2023-04-10T08:07:28;97576.00;;;9.49;45.77
55171;BME280;41060;47.510;8.680;2023-04-10T08:09:55;97571.66;;;9.61;45.78
55171;BME280;41060;47.510;8.680;2023-04-10T08:12:22;97569.16;;;9.72;45.68
55171;BME280;41060;47.510;8.680;2023-04-10T08:14:49;97571.38;;;9.78;47.13
55171;BME280;41060;47.510;8.680;2023-04-10T08:17:15;97572.41;;;9.63;45.40
55171;BME280;41060;47.510;8.680;2023-04-10T08:19:44;97575.16;;;9.99;45.76
55171;BME280;41060;47.510;8.680;2023-04-10T08:22:10;97567.59;;;10.31;45.57
55171;BME280;41060;47.510;8.680;2023-04-10T08:24:37;97566.06;;;10.52;43.87
55171;BME280;41060;47.510;8.680;2023-04-10T08:27:04;97560.97;;;10.49;44.65
55171;BME280;41060;47.510;8.680;2023-04-10T08:29:30;97555.22;;;10.31;43.93
55171;BME280;41060;47.510;8.680;2023-04-10T08:31:57;97557.78;;;10.57;43.81
55171;BME280;41060;47.510;8.680;2023-04-10T08:34:25;97556.19;;;10.67;44.46
55171;BME280;41060;47.510;8.680;2023-04-10T08:36:54;97554.38;;;10.67;43.90
55171;BME280;41060;47.510;8.680;2023-04-10T08:39:20;97554.03;;;10.72;43.60
55171;BME280;41060;47.510;8.680;2023-04-10T08:41:47;97553.88;;;10.86;43.09
55171;BME280;41060;47.510;8.680;2023-04-10T08:44:14;97549.03;;;11.04;43.13
55171;BME280;41060;47.510;8.680;2023-04-10T08:46:42;97552.47;;;10.93;42.69
55171;BME280;41060;47.510;8.680;2023-04-10T08:49:16;97559.81;;;11.25;42.63
55171;BME280;41060;47.510;8.680;2023-04-10T08:51:45;97564.38;;;11.23;43.04
55171;BME280;41060;47.510;8.680;2023-04-10T08:54:18;97540.50;;;11.12;42.95
55171;BME280;41060;47.510;8.680;2023-04-10T08:56:49;97563.53;;;10.87;43.06
55171;BME280;41060;47.510;8.680;2023-04-10T08:59:16;97571.34;;;10.89;43.39
55171;BME280;41060;47.510;8.680;2023-04-10T09:01:44;97560.13;;;11.09;43.28
55171;BME280;41060;47.510;8.680;2023-04-10T09:04:11;97559.94;;;11.23;42.41
55171;BME280;41060;47.510;8.680;2023-04-10T09:06:38;97542.13;;;11.25;42.56
55171;BME280;41060;47.510;8.680;2023-04-10T09:09:05;97554.63;;;11.80;42.22
55171;BME280;41060;47.510;8.680;2023-04-10T09:11:56;97550.97;;;12.16;39.57
55171;BME280;41060;47.510;8.680;2023-04-10T09:14:27;97543.69;;;12.41;40.65
55171;BME280;41060;47.510;8.680;2023-04-10T09:17:10;97548.38;;;12.48;39.46
55171;BME280;41060;47.510;8.680;2023-04-10T09:19:38;97543.31;;;12.45;39.86
55171;BME280;41060;47.510;8.680;2023-04-10T09:22:05;97543.78;;;12.50;39.73
55171;BME280;41060;47.510;8.680;2023-04-10T09:24:35;97540.59;;;12.79;39.33
55171;BME280;41060;47.510;8.680;2023-04-10T09:27:04;97527.97;;;12.92;38.08
55171;BME280;41060;47.510;8.680;2023-04-10T09:29:40;97519.88;;;13.25;38.58
55171;BME280;41060;47.510;8.680;2023-04-10T09:32:07;97506.28;;;13.19;38.54
55171;BME280;41060;47.510;8.680;2023-04-10T09:34:38;97526.31;;;13.64;37.82
55171;BME280;41060;47.510;8.680;2023-04-10T09:37:17;97526.00;;;13.58;37.65
55171;BME280;41060;47.510;8.680;2023-04-10T09:39:45;97529.88;;;13.54;38.89
55171;BME280;41060;47.510;8.680;2023-04-10T09:42:13;97526.25;;;13.55;38.09
55171;BME280;41060;47.510;8.680;2023-04-10T09:44:40;97475.59;;;13.35;38.61
55171;BME280;41060;47.510;8.680;2023-04-10T09:47:15;97520.78;;;13.77;38.19
55171;BME280;41060;47.510;8.680;2023-04-10T09:49:46;97517.53;;;13.73;38.40
55171;BME280;41060;47.510;8.680;2023-04-10T09:52:17;97519.03;;;13.66;37.08
55171;BME280;41060;47.510;8.680;2023-04-10T09:54:45;97507.69;;;13.64;38.30
55171;BME280;41060;47.510;8.680;2023-04-10T09:57:16;97507.88;;;13.72;38.56
55171;BME280;41060;47.510;8.680;2023-04-10T09:59:48;97516.00;;;14.01;38.16
55171;BME280;41060;47.510;8.680;2023-04-10T10:02:16;97501.75;;;14.12;36.59
55171;BME280;41060;47.510;8.680;2023-04-10T10:04:44;97498.63;;;14.37;36.93
55171;BME280;41060;47.510;8.680;2023-04-10T10:07:12;97494.56;;;14.43;37.50
55171;BME280;41060;47.510;8.680;2023-04-10T10:09:40;97485.09;;;14.88;37.22
55171;BME280;41060;47.510;8.680;2023-04-10T10:12:08;97477.97;;;15.27;36.05
55171;BME280;41060;47.510;8.680;2023-04-10T10:14:45;97472.56;;;15.56;35.32
55171;BME280;41060;47.510;8.680;2023-04-10T10:17:17;97460.44;;;15.71;34.13
55171;BME280;41060;47.510;8.680;2023-04-10T10:19:52;97464.84;;;15.53;34.71
55171;BME280;41060;47.510;8.680;2023-04-10T10:22:24;97459.81;;;15.50;35.24
55171;BME280;41060;47.510;8.680;2023-04-10T10:24:53;97462.50;;;15.21;35.20
55171;BME280;41060;47.510;8.680;2023-04-10T10:27:21;97454.84;;;15.65;34.55
55171;BME280;41060;47.510;8.680;2023-04-10T10:29:52;97451.34;;;15.64;33.96
55171;BME280;41060;47.510;8.680;2023-04-10T10:32:19;97452.72;;;15.12;35.17
55171;BME280;41060;47.510;8.680;2023-04-10T10:34:51;97441.47;;;15.28;35.87
55171;BME280;41060;47.510;8.680;2023-04-10T10:37:19;97427.97;;;15.76;35.24
55171;BME280;41060;47.510;8.680;2023-04-10T10:39:52;97445.78;;;15.85;35.60
55171;BME280;41060;47.510;8.680;2023-04-10T10:42:26;97420.66;;;16.15;34.35
55171;BME280;41060;47.510;8.680;2023-04-10T10:45:06;97435.59;;;16.53;33.03
55171;BME280;41060;47.510;8.680;2023-04-10T10:47:39;97420.94;;;16.39;33.41
55171;BME280;41060;47.510;8.680;2023-04-10T10:50:10;97420.78;;;16.14;33.38
55171;BME280;41060;47.510;8.680;2023-04-10T10:52:42;97389.50;;;15.96;34.22
55171;BME280;41060;47.510;8.680;2023-04-10T10:55:29;97408.47;;;16.30;33.85
55171;BME280;41060;47.510;8.680;2023-04-10T10:58:05;97406.78;;;16.47;33.54
55171;BME280;41060;47.510;8.680;2023-04-10T11:03:45;97388.53;;;16.96;32.34
55171;BME280;41060;47.510;8.680;2023-04-10T11:06:14;97389.25;;;17.23;33.51
55171;BME280;41060;47.510;8.680;2023-04-10T11:08:44;97395.16;;;17.27;33.19
55171;BME280;41060;47.510;8.680;2023-04-10T11:11:19;97393.31;;;17.27;32.63
55171;BME280;41060;47.510;8.680;2023-04-10T11:14:12;97392.00;;;17.14;33.24
55171;BME280;41060;47.510;8.680;2023-04-10T11:16:46;97385.41;;;17.00;33.13
55171;BME280;41060;47.510;8.680;2023-04-10T11:19:14;97381.72;;;17.53;32.76
55171;BME280;41060;47.510;8.680;2023-04-10T11:22:03;97383.28;;;17.89;32.23
55171;BME280;41060;47.510;8.680;2023-04-10T11:24:58;97387.78;;;18.23;30.94
55171;BME280;41060;47.510;8.680;2023-04-10T11:27:39;97386.38;;;18.11;30.27
55171;BME280;41060;47.510;8.680;2023-04-10T11:30:28;97381.78;;;18.37;30.73
55171;BME280;41060;47.510;8.680;2023-04-10T11:32:55;97376.09;;;18.56;29.89
55171;BME280;41060;47.510;8.680;2023-04-10T11:35:24;97371.47;;;18.74;29.30
55171;BME280;41060;47.510;8.680;2023-04-10T11:37:51;97367.44;;;18.87;28.01
55171;BME280;41060;47.510;8.680;2023-04-10T11:40:20;97369.47;;;18.68;28.56
55171;BME280;41060;47.510;8.680;2023-04-10T11:42:47;97363.44;;;18.91;29.17
55171;BME280;41060;47.510;8.680;2023-04-10T11:45:25;97355.34;;;19.15;28.77
55171;BME280;41060;47.510;8.680;2023-04-10T11:47:53;97345.41;;;19.40;28.83
55171;BME280;41060;47.510;8.680;2023-04-10T11:50:20;97359.81;;;19.55;29.19
55171;BME280;41060;47.510;8.680;2023-04-10T11:52:48;97358.97;;;19.63;27.77
55171;BME280;41060;47.510;8.680;2023-04-10T11:55:17;97362.22;;;19.09;28.46
55171;BME280;41060;47.510;8.680;2023-04-10T11:57:44;97352.66;;;18.58;28.23
55171;BME280;41060;47.510;8.680;2023-04-10T12:00:21;97362.34;;;18.51;29.65
55171;BME280;41060;47.510;8.680;2023-04-10T12:02:50;97355.00;;;18.53;30.57
55171;BME280;41060;47.510;8.680;2023-04-10T12:05:17;97342.59;;;18.85;29.02
55171;BME280;41060;47.510;8.680;2023-04-10T12:07:44;97343.56;;;19.48;29.94
55171;BME280;41060;47.510;8.680;2023-04-10T12:10:13;97341.78;;;20.11;29.08
55171;BME280;41060;47.510;8.680;2023-04-10T12:12:39;97335.47;;;20.34;28.12
55171;BME280;41060;47.510;8.680;2023-04-10T12:15:25;97334.94;;;20.39;27.67
55171;BME280;41060;47.510;8.680;2023-04-10T12:17:52;97330.03;;;20.65;28.09
55171;BME280;41060;47.510;8.680;2023-04-10T12:20:19;97320.47;;;20.09;26.48
55171;BME280;41060;47.510;8.680;2023-04-10T12:22:51;97322.34;;;20.40;27.56
55171;BME280;41060;47.510;8.680;2023-04-10T12:25:21;97321.84;;;20.36;27.69
55171;BME280;41060;47.510;8.680;2023-04-10T12:27:49;97314.13;;;20.79;27.90
55171;BME280;41060;47.510;8.680;2023-04-10T12:30:16;97312.25;;;20.79;26.71
55171;BME280;41060;47.510;8.680;2023-04-10T12:32:50;97279.38;;;20.54;28.08
55171;BME280;41060;47.510;8.680;2023-04-10T12:35:17;97301.09;;;20.67;26.83
55171;BME280;41060;47.510;8.680;2023-04-10T12:37:47;97301.59;;;21.08;26.55
55171;BME280;41060;47.510;8.680;2023-04-10T12:40:14;97301.03;;;20.98;26.03
55171;BME280;41060;47.510;8.680;2023-04-10T12:42:42;97299.53;;;20.73;27.10
55171;BME280;41060;47.510;8.680;2023-04-10T12:45:10;97293.88;;;20.68;26.66
55171;BME280;41060;47.510;8.680;2023-04-10T12:47:43;97286.53;;;20.99;26.43
55171;BME280;41060;47.510;8.680;2023-04-10T12:50:13;97286.03;;;21.19;25.73
55171;BME280;41060;47.510;8.680;2023-04-10T12:52:40;97297.25;;;21.52;25.57
55171;BME280;41060;47.510;8.680;2023-04-10T12:55:11;97282.22;;;21.86;25.83
55171;BME280;41060;47.510;8.680;2023-04-10T12:57:39;97282.56;;;21.54;24.67
55171;BME280;41060;47.510;8.680;2023-04-10T13:00:09;97280.72;;;21.25;24.90
55171;BME280;41060;47.510;8.680;2023-04-10T13:02:37;97241.69;;;21.06;25.94
55171;BME280;41060;47.510;8.680;2023-04-10T13:05:05;97270.69;;;21.19;25.16
55171;BME280;41060;47.510;8.680;2023-04-10T13:07:32;97264.59;;;20.88;26.38
55171;BME280;41060;47.510;8.680;2023-04-10T13:09:59;97263.28;;;21.21;26.75
55171;BME280;41060;47.510;8.680;2023-04-10T13:12:26;97264.34;;;20.97;26.76
55171;BME280;41060;47.510;8.680;2023-04-10T13:14:54;97262.63;;;20.82;26.04
55171;BME280;41060;47.510;8.680;2023-04-10T13:17:23;97258.50;;;21.08;26.74
55171;BME280;41060;47.510;8.680;2023-04-10T13:19:51;97257.16;;;21.13;25.79